sensor_id;sensor_type;location;lat;lon;timestamp;temperature;humidity
9118;DHT22;4594;50.994;7.126;2022-07-03T00:01:32;20.10;32.50
9118;DHT22;4594;50.994;7.126;2022-07-03T00:03:58;20.10;32.40
9118;DHT22;4594;50.994;7.126;2022-07-03T00:06:25;20.10;32.50
9118;DHT22;4594;50.994;7.126;2022-07-03T00:08:51;20.00;32.50
9118;DHT22;4594;50.994;7.126;2022-07-03T00:11:17;20.10;32.60
9118;DHT22;4594;50.994;7.126;2022-07-03T00:13:43;19.90;32.60
9118;DHT22;4594;50.994;7.126;2022-07-03T00:16:09;19.90;32.70
9118;DHT22;4594;50.994;7.126;2022-07-03T00:18:35;19.80;32.70
9118;DHT22;4594;50.994;7.126;2022-07-03T00:21:03;19.80;32.70
9118;DHT22;4594;50.994;7.126;2022-07-03T00:23:34;19.70;32.80
9118;DHT22;4594;50.994;7.126;2022-07-03T00:26:07;19.60;32.80
9118;DHT22;4594;50.994;7.126;2022-07-03T00:28:34;19.60;33.00
9118;DHT22;4594;50.994;7.126;2022-07-03T00:31:01;19.50;32.80
9118;DHT22;4594;50.994;7.126;2022-07-03T00:33:28;19.50;32.90
9118;DHT22;4594;50.994;7.126;2022-07-03T00:35:57;19.50;32.90
9118;DHT22;4594;50.994;7.126;2022-07-03T00:38:23;19.40;33.00
9118;DHT22;4594;50.994;7.126;2022-07-03T00:40:49;19.30;33.00
9118;DHT22;4594;50.994;7.126;2022-07-03T00:43:16;19.30;33.00
9118;DHT22;4594;50.994;7.126;2022-07-03T00:45:49;19.20;33.00
9118;DHT22;4594;50.994;7.126;2022-07-03T00:48:17;19.20;33.10
9118;DHT22;4594;50.994;7.126;2022-07-03T00:50:47;19.20;33.00
9118;DHT22;4594;50.994;7.126;2022-07-03T00:53:19;19.10;33.10
9118;DHT22;4594;50.994;7.126;2022-07-03T00:55:53;18.90;33.10
9118;DHT22;4594;50.994;7.126;2022-07-03T00:58:21;18.90;33.00
9118;DHT22;4594;50.994;7.126;2022-07-03T01:00:50;18.90;33.10
9118;DHT22;4594;50.994;7.126;2022-07-03T01:03:19;18.90;33.10
9118;DHT22;4594;50.994;7.126;2022-07-03T01:05:55;18.90;33.10
9118;DHT22;4594;50.994;7.126;2022-07-03T01:14:24;18.80;33.80
9118;DHT22;4594;50.994;7.126;2022-07-03T01:17:05;18.80;33.40
9118;DHT22;4594;50.994;7.126;2022-07-03T01:19:46;18.80;33.70
9118;DHT22;4594;50.994;7.126;2022-07-03T01:22:32;18.70;33.40
9118;DHT22;4594;50.994;7.126;2022-07-03T01:27:45;18.60;33.50
9118;DHT22;4594;50.994;7.126;2022-07-03T01:30:22;18.60;33.40
9118;DHT22;4594;50.994;7.126;2022-07-03T01:33:04;18.60;33.50
9118;DHT22;4594;50.994;7.126;2022-07-03T01:36:06;18.60;33.90
9118;DHT22;4594;50.994;7.126;2022-07-03T01:38:38;18.60;33.80
9118;DHT22;4594;50.994;7.126;2022-07-03T01:41:11;18.50;33.80
9118;DHT22;4594;50.994;7.126;2022-07-03T01:43:49;18.50;33.70
9118;DHT22;4594;50.994;7.126;2022-07-03T01:46:27;18.40;33.90
9118;DHT22;4594;50.994;7.126;2022-07-03T01:48:55;18.40;33.80
9118;DHT22;4594;50.994;7.126;2022-07-03T01:51:22;18.40;33.60
9118;DHT22;4594;50.994;7.126;2022-07-03T01:53:50;18.40;33.70
9118;DHT22;4594;50.994;7.126;2022-07-03T01:56:19;18.30;33.70
9118;DHT22;4594;50.994;7.126;2022-07-03T01:58:46;18.30;33.80
9118;DHT22;4594;50.994;7.126;2022-07-03T02:04:04;18.30;33.80
9118;DHT22;4594;50.994;7.126;2022-07-03T02:09:24;18.30;34.20
9118;DHT22;4594;50.994;7.126;2022-07-03T02:12:12;18.20;34.10
9118;DHT22;4594;50.994;7.126;2022-07-03T02:14:40;18.20;34.00
9118;DHT22;4594;50.994;7.126;2022-07-03T02:17:20;18.20;34.10
9118;DHT22;4594;50.994;7.126;2022-07-03T02:19:58;18.10;34.10
9118;DHT22;4594;50.994;7.126;2022-07-03T02:22:36;18.10;34.30
9118;DHT22;4594;50.994;7.126;2022-07-03T02:25:34;18.10;34.40
9118;DHT22;4594;50.994;7.126;2022-07-03T02:28:06;18.10;34.70
9118;DHT22;4594;50.994;7.126;2022-07-03T02:30:58;18.00;34.30
9118;DHT22;4594;50.994;7.126;2022-07-03T02:33:30;18.00;34.20
9118;DHT22;4594;50.994;7.126;2022-07-03T02:35:58;18.00;34.30
9118;DHT22;4594;50.994;7.126;2022-07-03T02:38:25;17.90;34.20
9118;DHT22;4594;50.994;7.126;2022-07-03T02:41:02;17.90;34.30
9118;DHT22;4594;50.994;7.126;2022-07-03T02:46:24;17.90;34.80
9118;DHT22;4594;50.994;7.126;2022-07-03T02:52:42;17.80;34.70
9118;DHT22;4594;50.994;7.126;2022-07-03T02:58:39;17.80;34.80
9118;DHT22;4594;50.994;7.126;2022-07-03T03:01:41;17.70;34.80
9118;DHT22;4594;50.994;7.126;2022-07-03T03:04:21;17.70;35.00
9118;DHT22;4594;50.994;7.126;2022-07-03T03:06:55;17.70;34.80
9118;DHT22;4594;50.994;7.126;2022-07-03T03:09:31;17.70;34.70
9118;DHT22;4594;50.994;7.126;2022-07-03T03:12:05;17.60;34.70
9118;DHT22;4594;50.994;7.126;2022-07-03T03:14:42;17.60;34.60
9118;DHT22;4594;50.994;7.126;2022-07-03T03:17:17;17.50;34.90
9118;DHT22;4594;50.994;7.126;2022-07-03T03:19:46;17.60;35.10
9118;DHT22;4594;50.994;7.126;2022-07-03T03:25:20;17.50;35.20
9118;DHT22;4594;50.994;7.126;2022-07-03T03:27:46;17.50;34.80
9118;DHT22;4594;50.994;7.126;2022-07-03T03:30:12;17.40;34.80
9118;DHT22;4594;50.994;7.126;2022-07-03T03:32:38;17.40;34.90
9118;DHT22;4594;50.994;7.126;2022-07-03T03:35:05;17.40;35.00
9118;DHT22;4594;50.994;7.126;2022-07-03T03:37:31;17.40;35.00
9118;DHT22;4594;50.994;7.126;2022-07-03T03:39:57;17.40;35.00
9118;DHT22;4594;50.994;7.126;2022-07-03T03:42:23;17.30;35.00
9118;DHT22;4594;50.994;7.126;2022-07-03T03:44:49;17.30;35.00
9118;DHT22;4594;50.994;7.126;2022-07-03T03:47:15;17.30;35.10
9118;DHT22;4594;50.994;7.126;2022-07-03T03:49:40;17.30;35.10
9118;DHT22;4594;50.994;7.126;2022-07-03T03:52:06;17.30;35.50
9118;DHT22;4594;50.994;7.126;2022-07-03T03:54:32;17.30;35.30
9118;DHT22;4594;50.994;7.126;2022-07-03T03:57:17;17.20;35.30
9118;DHT22;4594;50.994;7.126;2022-07-03T03:59:47;17.30;35.90
9118;DHT22;4594;50.994;7.126;2022-07-03T04:02:13;17.20;35.40
9118;DHT22;4594;50.994;7.126;2022-07-03T04:04:39;17.30;35.50
9118;DHT22;4594;50.994;7.126;2022-07-03T04:07:05;17.30;35.90
9118;DHT22;4594;50.994;7.126;2022-07-03T04:09:31;17.40;35.80
9118;DHT22;4594;50.994;7.126;2022-07-03T04:11:57;17.30;35.80
9118;DHT22;4594;50.994;7.126;2022-07-03T04:14:23;17.40;35.90
9118;DHT22;4594;50.994;7.126;2022-07-03T04:16:49;17.40;36.00
9118;DHT22;4594;50.994;7.126;2022-07-03T04:19:15;17.40;36.00
9118;DHT22;4594;50.994;7.126;2022-07-03T04:21:41;17.40;36.00
9118;DHT22;4594;50.994;7.126;2022-07-03T04:24:07;17.50;36.20
9118;DHT22;4594;50.994;7.126;2022-07-03T04:26:33;17.50;36.20
9118;DHT22;4594;50.994;7.126;2022-07-03T04:28:58;17.60;36.20
9118;DHT22;4594;50.994;7.126;2022-07-03T04:31:24;17.60;36.20
9118;DHT22;4594;50.994;7.126;2022-07-03T04:33:50;17.70;36.30
9118;DHT22;4594;50.994;7.126;2022-07-03T04:36:16;17.80;36.40
9118;DHT22;4594;50.994;7.126;2022-07-03T04:38:42;17.80;36.50
9118;DHT22;4594;50.994;7.126;2022-07-03T04:41:09;17.90;36.70
9118;DHT22;4594;50.994;7.126;2022-07-03T04:43:35;18.00;36.80
9118;DHT22;4594;50.994;7.126;2022-07-03T04:46:02;18.10;37.00
9118;DHT22;4594;50.994;7.126;2022-07-03T04:48:29;18.20;37.10
9118;DHT22;4594;50.994;7.126;2022-07-03T04:50:55;18.30;37.20
9118;DHT22;4594;50.994;7.126;2022-07-03T04:53:21;18.50;37.40
9118;DHT22;4594;50.994;7.126;2022-07-03T04:55:48;18.60;37.50
9118;DHT22;4594;50.994;7.126;2022-07-03T04:58:14;18.70;37.50
9118;DHT22;4594;50.994;7.126;2022-07-03T05:00:41;18.90;37.50
9118;DHT22;4594;50.994;7.126;2022-07-03T05:03:08;19.00;37.50
9118;DHT22;4594;50.994;7.126;2022-07-03T05:05:34;19.10;37.60
9118;DHT22;4594;50.994;7.126;2022-07-03T05:08:00;19.30;37.80
9118;DHT22;4594;50.994;7.126;2022-07-03T05:10:26;19.50;38.20
9118;DHT22;4594;50.994;7.126;2022-07-03T05:12:52;19.70;38.30
9118;DHT22;4594;50.994;7.126;2022-07-03T05:15:19;20.10;38.50
9118;DHT22;4594;50.994;7.126;2022-07-03T05:17:46;20.40;38.50
9118;DHT22;4594;50.994;7.126;2022-07-03T05:20:12;20.80;38.70
9118;DHT22;4594;50.994;7.126;2022-07-03T05:25:20;21.70;38.70
9118;DHT22;4594;50.994;7.126;2022-07-03T05:27:46;22.10;38.80
9118;DHT22;4594;50.994;7.126;2022-07-03T05:30:13;22.60;39.00
9118;DHT22;4594;50.994;7.126;2022-07-03T05:32:40;22.90;38.90
9118;DHT22;4594;50.994;7.126;2022-07-03T05:35:06;23.30;38.90
9118;DHT22;4594;50.994;7.126;2022-07-03T05:37:32;23.70;38.90
9118;DHT22;4594;50.994;7.126;2022-07-03T05:39:58;24.10;38.80
9118;DHT22;4594;50.994;7.126;2022-07-03T05:42:23;24.30;38.60
9118;DHT22;4594;50.994;7.126;2022-07-03T05:44:49;24.60;38.60
9118;DHT22;4594;50.994;7.126;2022-07-03T05:47:15;25.00;38.70
9118;DHT22;4594;50.994;7.126;2022-07-03T05:49:40;25.30;38.60
9118;DHT22;4594;50.994;7.126;2022-07-03T05:52:06;25.70;38.60
9118;DHT22;4594;50.994;7.126;2022-07-03T05:54:32;26.00;38.30
9118;DHT22;4594;50.994;7.126;2022-07-03T05:56:58;26.40;38.20
9118;DHT22;4594;50.994;7.126;2022-07-03T05:59:23;26.70;37.80
9118;DHT22;4594;50.994;7.126;2022-07-03T06:01:49;27.00;37.40
9118;DHT22;4594;50.994;7.126;2022-07-03T06:04:15;27.30;37.20
9118;DHT22;4594;50.994;7.126;2022-07-03T06:06:41;27.60;37.20
9118;DHT22;4594;50.994;7.126;2022-07-03T06:09:07;27.90;37.10
9118;DHT22;4594;50.994;7.126;2022-07-03T06:11:33;28.20;37.00
9118;DHT22;4594;50.994;7.126;2022-07-03T06:13:59;28.50;36.90
9118;DHT22;4594;50.994;7.126;2022-07-03T06:16:24;28.80;36.70
9118;DHT22;4594;50.994;7.126;2022-07-03T06:18:50;29.20;36.50
9118;DHT22;4594;50.994;7.126;2022-07-03T06:21:16;29.50;36.20
9118;DHT22;4594;50.994;7.126;2022-07-03T06:23:42;29.80;36.30
9118;DHT22;4594;50.994;7.126;2022-07-03T06:26:07;30.10;36.20
9118;DHT22;4594;50.994;7.126;2022-07-03T06:28:33;30.40;36.00
9118;DHT22;4594;50.994;7.126;2022-07-03T06:30:59;30.60;35.70
9118;DHT22;4594;50.994;7.126;2022-07-03T06:33:24;30.90;35.60
9118;DHT22;4594;50.994;7.126;2022-07-03T06:35:50;31.20;35.50
9118;DHT22;4594;50.994;7.126;2022-07-03T06:38:16;31.50;35.50
9118;DHT22;4594;50.994;7.126;2022-07-03T06:40:42;31.80;35.40
9118;DHT22;4594;50.994;7.126;2022-07-03T06:43:08;32.10;35.40
9118;DHT22;4594;50.994;7.126;2022-07-03T06:45:33;32.40;35.40
9118;DHT22;4594;50.994;7.126;2022-07-03T06:47:59;32.70;35.30
9118;DHT22;4594;50.994;7.126;2022-07-03T06:50:25;33.00;35.00
9118;DHT22;4594;50.994;7.126;2022-07-03T06:52:51;33.30;35.00
9118;DHT22;4594;50.994;7.126;2022-07-03T06:55:16;33.70;35.00
9118;DHT22;4594;50.994;7.126;2022-07-03T06:57:43;34.00;34.90
9118;DHT22;4594;50.994;7.126;2022-07-03T07:00:09;34.30;34.60
9118;DHT22;4594;50.994;7.126;2022-07-03T07:02:35;34.60;34.50
9118;DHT22;4594;50.994;7.126;2022-07-03T07:05:01;34.90;34.30
9118;DHT22;4594;50.994;7.126;2022-07-03T07:07:27;35.20;34.10
9118;DHT22;4594;50.994;7.126;2022-07-03T07:09:52;35.50;34.20
9118;DHT22;4594;50.994;7.126;2022-07-03T07:12:18;35.80;34.00
9118;DHT22;4594;50.994;7.126;2022-07-03T07:14:44;36.00;33.90
9118;DHT22;4594;50.994;7.126;2022-07-03T07:17:09;36.30;33.80
9118;DHT22;4594;50.994;7.126;2022-07-03T07:19:35;36.60;33.70
9118;DHT22;4594;50.994;7.126;2022-07-03T07:22:02;36.80;33.60
9118;DHT22;4594;50.994;7.126;2022-07-03T07:24:28;37.10;33.40
9118;DHT22;4594;50.994;7.126;2022-07-03T07:26:54;37.30;33.20
9118;DHT22;4594;50.994;7.126;2022-07-03T07:29:20;37.50;33.00
9118;DHT22;4594;50.994;7.126;2022-07-03T07:31:45;37.80;32.90
9118;DHT22;4594;50.994;7.126;2022-07-03T07:34:11;38.00;32.80
9118;DHT22;4594;50.994;7.126;2022-07-03T07:36:37;38.20;32.50
9118;DHT22;4594;50.994;7.126;2022-07-03T07:39:03;38.40;32.30
9118;DHT22;4594;50.994;7.126;2022-07-03T07:41:29;38.60;32.20
9118;DHT22;4594;50.994;7.126;2022-07-03T07:43:54;38.70;32.10
9118;DHT22;4594;50.994;7.126;2022-07-03T07:46:20;38.90;31.90
9118;DHT22;4594;50.994;7.126;2022-07-03T07:48:46;39.00;31.90
9118;DHT22;4594;50.994;7.126;2022-07-03T07:51:12;39.20;31.90
9118;DHT22;4594;50.994;7.126;2022-07-03T07:53:37;39.40;31.80
9118;DHT22;4594;50.994;7.126;2022-07-03T07:56:03;39.60;31.50
9118;DHT22;4594;50.994;7.126;2022-07-03T07:58:29;39.80;31.60
9118;DHT22;4594;50.994;7.126;2022-07-03T08:00:55;40.00;31.50
9118;DHT22;4594;50.994;7.126;2022-07-03T08:03:39;40.10;31.30
9118;DHT22;4594;50.994;7.126;2022-07-03T08:06:23;40.40;31.20
9118;DHT22;4594;50.994;7.126;2022-07-03T08:08:49;40.50;31.00
9118;DHT22;4594;50.994;7.126;2022-07-03T08:11:15;40.70;31.10
9118;DHT22;4594;50.994;7.126;2022-07-03T08:13:40;40.80;30.90
9118;DHT22;4594;50.994;7.126;2022-07-03T08:16:06;41.00;30.90
9118;DHT22;4594;50.994;7.126;2022-07-03T08:18:32;41.10;30.90
9118;DHT22;4594;50.994;7.126;2022-07-03T08:20:58;41.30;30.80
9118;DHT22;4594;50.994;7.126;2022-07-03T08:23:23;41.50;30.70
9118;DHT22;4594;50.994;7.126;2022-07-03T08:25:49;41.70;30.60
9118;DHT22;4594;50.994;7.126;2022-07-03T08:28:15;41.80;30.50
9118;DHT22;4594;50.994;7.126;2022-07-03T08:30:40;42.00;30.50
9118;DHT22;4594;50.994;7.126;2022-07-03T08:33:06;42.20;30.30
9118;DHT22;4594;50.994;7.126;2022-07-03T08:35:32;42.40;30.20
9118;DHT22;4594;50.994;7.126;2022-07-03T08:37:57;42.60;30.20
9118;DHT22;4594;50.994;7.126;2022-07-03T08:40:24;42.70;30.10
9118;DHT22;4594;50.994;7.126;2022-07-03T08:42:54;42.90;30.00
9118;DHT22;4594;50.994;7.126;2022-07-03T08:45:23;43.10;29.80
9118;DHT22;4594;50.994;7.126;2022-07-03T08:47:50;43.20;29.90
9118;DHT22;4594;50.994;7.126;2022-07-03T08:50:19;43.40;29.90
9118;DHT22;4594;50.994;7.126;2022-07-03T08:52:47;43.40;29.70
9118;DHT22;4594;50.994;7.126;2022-07-03T08:55:14;43.50;29.60
9118;DHT22;4594;50.994;7.126;2022-07-03T08:57:42;43.70;29.60
9118;DHT22;4594;50.994;7.126;2022-07-03T09:00:16;43.80;29.60
9118;DHT22;4594;50.994;7.126;2022-07-03T09:02:45;43.90;29.20
9118;DHT22;4594;50.994;7.126;2022-07-03T09:05:13;44.00;29.40
9118;DHT22;4594;50.994;7.126;2022-07-03T09:07:41;44.10;29.40
9118;DHT22;4594;50.994;7.126;2022-07-03T09:10:18;44.20;29.40
9118;DHT22;4594;50.994;7.126;2022-07-03T09:12:46;44.20;29.30
9118;DHT22;4594;50.994;7.126;2022-07-03T09:15:13;44.40;29.30
9118;DHT22;4594;50.994;7.126;2022-07-03T09:17:39;44.40;29.30
9118;DHT22;4594;50.994;7.126;2022-07-03T09:20:07;44.50;29.30
9118;DHT22;4594;50.994;7.126;2022-07-03T09:22:35;44.60;29.20
9118;DHT22;4594;50.994;7.126;2022-07-03T09:25:10;44.70;29.00
9118;DHT22;4594;50.994;7.126;2022-07-03T09:27:39;44.80;28.90
9118;DHT22;4594;50.994;7.126;2022-07-03T09:30:15;44.90;29.00
9118;DHT22;4594;50.994;7.126;2022-07-03T09:37:51;45.00;28.60
9118;DHT22;4594;50.994;7.126;2022-07-03T09:40:18;45.10;28.70
9118;DHT22;4594;50.994;7.126;2022-07-03T09:43:04;45.10;28.70
9118;DHT22;4594;50.994;7.126;2022-07-03T09:45:55;45.10;28.50
9118;DHT22;4594;50.994;7.126;2022-07-03T09:51:14;45.10;28.60
9118;DHT22;4594;50.994;7.126;2022-07-03T09:54:02;45.10;28.40
9118;DHT22;4594;50.994;7.126;2022-07-03T09:56:38;45.20;28.50
9118;DHT22;4594;50.994;7.126;2022-07-03T10:01:38;45.10;28.30
9118;DHT22;4594;50.994;7.126;2022-07-03T10:04:20;44.90;28.20
9118;DHT22;4594;50.994;7.126;2022-07-03T10:06:54;44.90;28.10
9118;DHT22;4594;50.994;7.126;2022-07-03T10:09:28;44.80;28.20
9118;DHT22;4594;50.994;7.126;2022-07-03T10:11:56;44.80;28.20
9118;DHT22;4594;50.994;7.126;2022-07-03T10:14:27;44.70;28.00
9118;DHT22;4594;50.994;7.126;2022-07-03T10:16:55;44.60;28.00
9118;DHT22;4594;50.994;7.126;2022-07-03T10:19:26;44.60;28.10
9118;DHT22;4594;50.994;7.126;2022-07-03T10:21:53;44.50;28.00
9118;DHT22;4594;50.994;7.126;2022-07-03T10:24:42;44.50;28.10
9118;DHT22;4594;50.994;7.126;2022-07-03T10:27:09;44.50;28.00
9118;DHT22;4594;50.994;7.126;2022-07-03T10:29:36;44.60;28.00
9118;DHT22;4594;50.994;7.126;2022-07-03T10:32:06;44.60;28.00
9118;DHT22;4594;50.994;7.126;2022-07-03T10:34:33;44.60;28.00
9118;DHT22;4594;50.994;7.126;2022-07-03T10:37:02;44.60;28.10
9118;DHT22;4594;50.994;7.126;2022-07-03T10:42:31;44.70;27.80
9118;DHT22;4594;50.994;7.126;2022-07-03T10:45:18;44.80;27.70
9118;DHT22;4594;50.994;7.126;2022-07-03T10:47:46;44.90;27.90
9118;DHT22;4594;50.994;7.126;2022-07-03T10:50:15;44.90;27.80
9118;DHT22;4594;50.994;7.126;2022-07-03T10:52:43;44.90;27.70
9118;DHT22;4594;50.994;7.126;2022-07-03T10:55:10;44.70;27.70
9118;DHT22;4594;50.994;7.126;2022-07-03T10:57:39;44.60;27.50
9118;DHT22;4594;50.994;7.126;2022-07-03T11:02:47;44.40;27.60
9118;DHT22;4594;50.994;7.126;2022-07-03T11:05:20;44.40;27.60
9118;DHT22;4594;50.994;7.126;2022-07-03T11:13:09;44.20;27.60
9118;DHT22;4594;50.994;7.126;2022-07-03T11:24:00;44.00;27.30
9118;DHT22;4594;50.994;7.126;2022-07-03T11:26:39;43.90;27.60
9118;DHT22;4594;50.994;7.126;2022-07-03T11:29:06;43.80;27.40
9118;DHT22;4594;50.994;7.126;2022-07-03T11:31:32;43.70;27.30
9118;DHT22;4594;50.994;7.126;2022-07-03T11:33:58;43.60;27.40
9118;DHT22;4594;50.994;7.126;2022-07-03T11:36:30;43.50;27.40
9118;DHT22;4594;50.994;7.126;2022-07-03T11:41:24;43.20;27.20
9118;DHT22;4594;50.994;7.126;2022-07-03T11:43:59;43.10;27.20
9118;DHT22;4594;50.994;7.126;2022-07-03T11:46:30;42.80;27.10
9118;DHT22;4594;50.994;7.126;2022-07-03T11:49:14;42.50;27.00
9118;DHT22;4594;50.994;7.126;2022-07-03T11:51:43;42.10;26.80
9118;DHT22;4594;50.994;7.126;2022-07-03T11:54:19;41.70;26.80
9118;DHT22;4594;50.994;7.126;2022-07-03T11:56:45;41.30;26.80
9118;DHT22;4594;50.994;7.126;2022-07-03T11:59:11;41.00;26.80
9118;DHT22;4594;50.994;7.126;2022-07-03T12:01:38;40.50;26.70
9118;DHT22;4594;50.994;7.126;2022-07-03T12:04:11;40.20;26.70
9118;DHT22;4594;50.994;7.126;2022-07-03T12:06:50;39.80;26.80
9118;DHT22;4594;50.994;7.126;2022-07-03T12:09:19;39.40;26.80
9118;DHT22;4594;50.994;7.126;2022-07-03T12:11:57;39.00;26.70
9118;DHT22;4594;50.994;7.126;2022-07-03T12:17:20;38.30;27.00
9118;DHT22;4594;50.994;7.126;2022-07-03T12:20:00;38.00;26.80
9118;DHT22;4594;50.994;7.126;2022-07-03T12:25:07;37.30;26.80
9118;DHT22;4594;50.994;7.126;2022-07-03T12:27:36;37.00;26.90
9118;DHT22;4594;50.994;7.126;2022-07-03T12:30:04;36.70;26.80
9118;DHT22;4594;50.994;7.126;2022-07-03T12:32:32;36.40;26.80
9118;DHT22;4594;50.994;7.126;2022-07-03T12:34:58;36.20;26.80
9118;DHT22;4594;50.994;7.126;2022-07-03T12:37:39;36.00;26.90
9118;DHT22;4594;50.994;7.126;2022-07-03T12:40:10;35.70;27.00
9118;DHT22;4594;50.994;7.126;2022-07-03T12:42:51;35.50;26.90
9118;DHT22;4594;50.994;7.126;2022-07-03T12:45:28;35.20;27.00
9118;DHT22;4594;50.994;7.126;2022-07-03T12:48:04;35.00;27.00
9118;DHT22;4594;50.994;7.126;2022-07-03T12:50:52;34.80;26.90
9118;DHT22;4594;50.994;7.126;2022-07-03T12:53:30;34.60;27.10
9118;DHT22;4594;50.994;7.126;2022-07-03T12:56:07;34.40;27.20
9118;DHT22;4594;50.994;7.126;2022-07-03T12:58:35;34.20;27.30
9118;DHT22;4594;50.994;7.126;2022-07-03T13:01:28;34.00;27.20
9118;DHT22;4594;50.994;7.126;2022-07-03T13:03:55;33.80;27.20
9118;DHT22;4594;50.994;7.126;2022-07-03T13:06:22;33.60;27.20
9118;DHT22;4594;50.994;7.126;2022-07-03T13:09:04;33.40;27.20
9118;DHT22;4594;50.994;7.126;2022-07-03T13:11:41;33.20;27.30
9118;DHT22;4594;50.994;7.126;2022-07-03T13:14:15;33.00;27.40
9118;DHT22;4594;50.994;7.126;2022-07-03T13:16:42;32.90;27.50
9118;DHT22;4594;50.994;7.126;2022-07-03T13:19:10;32.80;27.50
9118;DHT22;4594;50.994;7.126;2022-07-03T13:21:37;32.60;27.50
9118;DHT22;4594;50.994;7.126;2022-07-03T13:24:05;32.50;27.40
9118;DHT22;4594;50.994;7.126;2022-07-03T13:26:31;32.40;27.50
9118;DHT22;4594;50.994;7.126;2022-07-03T13:28:57;32.30;27.60
9118;DHT22;4594;50.994;7.126;2022-07-03T13:31:23;32.20;27.60
9118;DHT22;4594;50.994;7.126;2022-07-03T13:33:48;32.10;27.70
9118;DHT22;4594;50.994;7.126;2022-07-03T13:36:14;32.00;27.60
9118;DHT22;4594;50.994;7.126;2022-07-03T13:38:43;32.00;27.80
9118;DHT22;4594;50.994;7.126;2022-07-03T13:41:09;31.90;27.80
9118;DHT22;4594;50.994;7.126;2022-07-03T13:43:35;31.90;27.90
9118;DHT22;4594;50.994;7.126;2022-07-03T13:46:01;31.90;27.90
9118;DHT22;4594;50.994;7.126;2022-07-03T13:48:27;31.80;27.90
9118;DHT22;4594;50.994;7.126;2022-07-03T13:50:53;31.80;27.90
9118;DHT22;4594;50.994;7.126;2022-07-03T13:53:19;31.90;28.00
9118;DHT22;4594;50.994;7.126;2022-07-03T13:55:44;31.90;28.00
9118;DHT22;4594;50.994;7.126;2022-07-03T13:58:10;31.90;28.00
9118;DHT22;4594;50.994;7.126;2022-07-03T14:00:36;31.90;28.00
9118;DHT22;4594;50.994;7.126;2022-07-03T14:03:02;31.90;28.00
9118;DHT22;4594;50.994;7.126;2022-07-03T14:05:28;31.80;28.00
9118;DHT22;4594;50.994;7.126;2022-07-03T14:07:54;31.80;28.00
9118;DHT22;4594;50.994;7.126;2022-07-03T14:10:20;31.80;28.00
9118;DHT22;4594;50.994;7.126;2022-07-03T14:12:48;31.70;28.00
9118;DHT22;4594;50.994;7.126;2022-07-03T14:15:14;31.70;28.00
9118;DHT22;4594;50.994;7.126;2022-07-03T14:17:40;31.60;28.00
9118;DHT22;4594;50.994;7.126;2022-07-03T14:20:06;31.60;28.10
9118;DHT22;4594;50.994;7.126;2022-07-03T14:22:32;31.50;28.10
9118;DHT22;4594;50.994;7.126;2022-07-03T14:24:58;31.40;28.10
9118;DHT22;4594;50.994;7.126;2022-07-03T14:27:23;31.40;28.20
9118;DHT22;4594;50.994;7.126;2022-07-03T14:30:21;31.30;28.20
9118;DHT22;4594;50.994;7.126;2022-07-03T14:33:05;31.30;28.20
9118;DHT22;4594;50.994;7.126;2022-07-03T14:35:31;31.20;28.20
9118;DHT22;4594;50.994;7.126;2022-07-03T14:37:57;31.20;28.30
9118;DHT22;4594;50.994;7.126;2022-07-03T14:40:23;31.20;28.30
9118;DHT22;4594;50.994;7.126;2022-07-03T14:42:49;31.10;28.30
9118;DHT22;4594;50.994;7.126;2022-07-03T14:45:14;31.00;28.30
9118;DHT22;4594;50.994;7.126;2022-07-03T14:47:40;31.10;28.30
9118;DHT22;4594;50.994;7.126;2022-07-03T14:50:06;31.10;28.40
9118;DHT22;4594;50.994;7.126;2022-07-03T14:52:32;31.10;28.40
9118;DHT22;4594;50.994;7.126;2022-07-03T14:54:58;31.10;28.40
9118;DHT22;4594;50.994;7.126;2022-07-03T15:00:27;31.00;28.50
9118;DHT22;4594;50.994;7.126;2022-07-03T15:03:07;31.00;28.40
9118;DHT22;4594;50.994;7.126;2022-07-03T15:05:39;31.00;28.60
9118;DHT22;4594;50.994;7.126;2022-07-03T15:10:56;31.00;28.60
9118;DHT22;4594;50.994;7.126;2022-07-03T15:13:31;31.00;28.60
9118;DHT22;4594;50.994;7.126;2022-07-03T15:15:59;31.00;28.60
9118;DHT22;4594;50.994;7.126;2022-07-03T15:18:25;31.00;28.60
9118;DHT22;4594;50.994;7.126;2022-07-03T15:20:53;31.00;28.60
9118;DHT22;4594;50.994;7.126;2022-07-03T15:23:20;31.00;28.60
9118;DHT22;4594;50.994;7.126;2022-07-03T15:25:47;30.90;28.60
9118;DHT22;4594;50.994;7.126;2022-07-03T15:28:15;30.90;28.60
9118;DHT22;4594;50.994;7.126;2022-07-03T15:30:53;30.80;28.60
9118;DHT22;4594;50.994;7.126;2022-07-03T15:33:20;30.90;28.80
9118;DHT22;4594;50.994;7.126;2022-07-03T15:35:49;30.80;28.60
9118;DHT22;4594;50.994;7.126;2022-07-03T15:38:22;30.80;28.60
9118;DHT22;4594;50.994;7.126;2022-07-03T15:40:54;30.70;28.60
9118;DHT22;4594;50.994;7.126;2022-07-03T15:43:35;30.70;28.70
9118;DHT22;4594;50.994;7.126;2022-07-03T15:51:56;30.60;28.70
9118;DHT22;4594;50.994;7.126;2022-07-03T15:57:20;30.60;28.90
9118;DHT22;4594;50.994;7.126;2022-07-03T16:00:05;30.60;28.80
9118;DHT22;4594;50.994;7.126;2022-07-03T16:02:45;30.60;28.90
9118;DHT22;4594;50.994;7.126;2022-07-03T16:05:21;30.50;28.80
9118;DHT22;4594;50.994;7.126;2022-07-03T16:07:52;30.40;28.70
9118;DHT22;4594;50.994;7.126;2022-07-03T16:10:20;30.40;28.80
9118;DHT22;4594;50.994;7.126;2022-07-03T16:12:47;30.40;28.80
9118;DHT22;4594;50.994;7.126;2022-07-03T16:15:18;30.30;28.80
9118;DHT22;4594;50.994;7.126;2022-07-03T16:17:45;30.20;28.70
9118;DHT22;4594;50.994;7.126;2022-07-03T16:20:12;30.20;28.70
9118;DHT22;4594;50.994;7.126;2022-07-03T16:22:39;30.10;28.70
9118;DHT22;4594;50.994;7.126;2022-07-03T16:25:07;30.10;28.70
9118;DHT22;4594;50.994;7.126;2022-07-03T16:27:34;30.00;28.70
9118;DHT22;4594;50.994;7.126;2022-07-03T16:30:01;29.90;28.70
9118;DHT22;4594;50.994;7.126;2022-07-03T16:32:38;29.80;28.60
9118;DHT22;4594;50.994;7.126;2022-07-03T16:35:43;29.70;28.80
9118;DHT22;4594;50.994;7.126;2022-07-03T16:38:03;29.60;28.70
9118;DHT22;4594;50.994;7.126;2022-07-03T16:40:32;29.50;28.60
9118;DHT22;4594;50.994;7.126;2022-07-03T16:42:59;29.40;28.70
9118;DHT22;4594;50.994;7.126;2022-07-03T16:45:30;29.30;28.70
9118;DHT22;4594;50.994;7.126;2022-07-03T16:48:05;29.20;28.70
9118;DHT22;4594;50.994;7.126;2022-07-03T16:50:35;29.10;28.80
9118;DHT22;4594;50.994;7.126;2022-07-03T16:53:01;29.00;28.70
9118;DHT22;4594;50.994;7.126;2022-07-03T16:55:26;28.90;28.80
9118;DHT22;4594;50.994;7.126;2022-07-03T16:57:54;28.90;28.80
9118;DHT22;4594;50.994;7.126;2022-07-03T17:00:27;28.80;28.80
9118;DHT22;4594;50.994;7.126;2022-07-03T17:02:55;28.70;28.90
9118;DHT22;4594;50.994;7.126;2022-07-03T17:05:23;28.70;28.80
9118;DHT22;4594;50.994;7.126;2022-07-03T17:07:52;28.60;28.90
9118;DHT22;4594;50.994;7.126;2022-07-03T17:10:20;28.60;28.90
9118;DHT22;4594;50.994;7.126;2022-07-03T17:12:55;28.50;28.90
9118;DHT22;4594;50.994;7.126;2022-07-03T17:15:24;28.50;29.00
9118;DHT22;4594;50.994;7.126;2022-07-03T17:18:05;28.30;29.00
9118;DHT22;4594;50.994;7.126;2022-07-03T17:20:38;28.30;29.10
9118;DHT22;4594;50.994;7.126;2022-07-03T17:23:11;28.20;29.00
9118;DHT22;4594;50.994;7.126;2022-07-03T17:25:44;28.20;29.10
9118;DHT22;4594;50.994;7.126;2022-07-03T17:28:13;28.20;29.10
9118;DHT22;4594;50.994;7.126;2022-07-03T17:30:43;28.10;29.00
9118;DHT22;4594;50.994;7.126;2022-07-03T17:33:12;28.10;29.00
9118;DHT22;4594;50.994;7.126;2022-07-03T17:35:42;28.00;29.00
9118;DHT22;4594;50.994;7.126;2022-07-03T17:38:15;28.00;29.00
9118;DHT22;4594;50.994;7.126;2022-07-03T17:40:45;27.90;29.00